createdAt,value
2023-03-16T00:00:01.497Z,42.31617286876158
2023-03-16T00:15:02.198Z,42.055833648283176
2023-03-16T00:30:01.880Z,41.62787550684956
2023-03-16T00:45:01.564Z,41.928134405619225
2023-03-16T01:00:02.231Z,42.6302929181713
2023-03-16T01:15:01.902Z,42.82410471377015
2023-03-16T01:30:01.605Z,42.8135776616638
2023-03-16T01:45:01.305Z,42.717013346346164
2023-03-16T02:00:02.006Z,43.37223599354328
2023-03-16T02:15:01.964Z,43.28512436664391
2023-03-16T02:30:01.820Z,43.003027449121205
2023-03-16T02:45:02.517Z,43.25906600441288
2023-03-16T03:00:02.186Z,43.25893348684444
2023-03-16T03:15:01.860Z,43.26533732709991
2023-03-16T03:30:01.609Z,43.07712012949087
2023-03-16T03:45:02.298Z,43.04410823191188
2023-03-16T04:00:02.004Z,42.36683126838692
2023-03-16T04:15:01.798Z,41.96761879187814
2023-03-16T04:30:01.570Z,41.80181401294218
2023-03-16T04:45:02.278Z,41.55159494713431
2023-03-16T05:00:01.944Z,41.452663187865504
2023-03-16T05:15:01.640Z,41.83683362367579
2023-03-16T05:30:02.299Z,41.14114879007712
2023-03-16T05:45:01.978Z,41.04453301287624
2023-03-16T06:00:01.594Z,40.91643641582587
2023-03-16T06:15:02.205Z,40.65474467676754
2023-03-16T06:30:01.903Z,40.20279588187374
2023-03-16T06:45:01.538Z,39.05127149087813
2023-03-16T07:00:02.171Z,38.551856262108565
2023-03-16T07:15:01.837Z,38.18660392673
2023-03-16T07:30:01.498Z,37.97282998908902
2023-03-16T07:45:02.156Z,37.09290825857652
2023-03-16T08:00:01.822Z,36.4252159667835
2023-03-16T08:15:01.463Z,36.57193890031248
2023-03-16T08:30:02.132Z,36.12933444570357
2023-03-16T08:45:01.858Z,34.667151426294296
2023-03-16T09:00:01.565Z,33.35076363217017
2023-03-16T09:15:02.213Z,29.733108453390443
2023-03-16T09:30:01.922Z,30.620430538169675
2023-03-16T09:45:01.565Z,31.012242366779226
2023-03-16T10:00:02.166Z,31.71046846101535
2023-03-16T10:15:02.037Z,31.059968097000414
2023-03-16T10:30:01.837Z,30.88423982341782
2023-03-16T10:45:02.990Z,30.273896329892814
2023-03-16T11:00:01.829Z,30.213505597725863
2023-03-16T11:15:01.507Z,30.461546992422367
2023-03-16T11:30:02.169Z,31.29301862447331
2023-03-16T11:45:01.847Z,32.826809611531374
2023-03-16T12:00:02.168Z,32.63960874174461
2023-03-16T12:15:01.995Z,30.44276313974366
2023-03-16T12:30:01.664Z,30.408545513474706
2023-03-16T12:45:02.287Z,30.74792891302104
2023-03-16T13:00:01.976Z,30.05504217932646
2023-03-16T13:15:01.668Z,31.019969932216803
2023-03-16T13:30:02.293Z,28.5469216275875
2023-03-16T13:45:01.914Z,28.87500534029331
2023-03-16T14:00:01.562Z,30.223418475994478
2023-03-16T14:15:02.214Z,30.551117521852174
2023-03-16T14:30:01.898Z,30.322154077492637
2023-03-16T14:45:01.583Z,27.56267108185271
2023-03-16T15:00:02.271Z,28.791824810357344
2023-03-16T15:15:01.935Z,31.016033297975515
2023-03-16T15:30:01.680Z,30.35180160276923
2023-03-16T15:45:01.348Z,30.66894511437869
2023-03-16T16:00:01.993Z,31.90445825511542
2023-03-16T16:15:01.640Z,32.31585792968789
2023-03-16T16:30:01.380Z,32.75897692823322
2023-03-16T16:45:02.016Z,33.388131628463704
2023-03-16T17:00:01.813Z,33.84201314194632
2023-03-16T17:15:01.565Z,35.30879928271326
2023-03-16T17:30:01.316Z,36.29209279033163
2023-03-16T17:45:02.008Z,37.11810883959339
2023-03-16T18:00:01.675Z,37.7827168830481
2023-03-16T18:15:01.626Z,38.065962167787816
2023-03-16T18:30:02.491Z,38.099510434749355
2023-03-16T18:45:02.214Z,38.13884030807675
2023-03-16T19:00:01.935Z,38.26899267938274
2023-03-16T19:15:01.631Z,38.51286988034023
2023-03-16T19:30:02.463Z,38.76251936606808
2023-03-16T19:45:02.234Z,39.091362941576755
2023-03-16T20:00:01.926Z,39.53881028316691
2023-03-16T20:15:01.654Z,39.680126841066965
2023-03-16T20:30:02.345Z,39.516135030955866
2023-03-16T20:45:02.065Z,39.63498742123572
2023-03-16T21:00:01.739Z,39.64657599574687
2023-03-16T21:15:01.520Z,39.92390306647845
2023-03-16T21:30:02.237Z,39.87326300439464
2023-03-16T21:45:01.961Z,39.7887390213979
2023-03-16T22:00:01.644Z,39.420764616906055
2023-03-16T22:15:02.344Z,39.48898340053124
2023-03-16T22:30:02.062Z,40.32186637164229
2023-03-16T22:45:01.764Z,41.01114327176729
2023-03-16T23:00:01.462Z,41.12224350532593
2023-03-16T23:15:02.177Z,40.912945082193765
2023-03-16T23:30:01.873Z,40.86251258624482
2023-03-16T23:45:01.650Z,40.918876865930166
